Weather at Grafenwohr Army Air Field

Public forecast

Using degrees Celsius for public forecast. Weather courtesy of forecast.io.

Current aviation weather report (METAR) for Grafenwohr Army Air Field

Retrieved 2021/09/19 19:56 UTC (12 minutes ago):

ETIC 191956Z AUTO 09004KT 9999 OVC036 10/06 A3000 RMK AO2 SLP161 T01030063

Aviation forecast (TAF) for Grafenwohr Army Air Field

Forecast is more than 12 hours old.

Retrieved 2021-09-18 02:00 UTC (2 days ago):

TAF ETIC 170200Z 1702/1808 VRB06KT 9999 SCT008 BKN045 QNH2999INS TEMPO 1702/1708 6000 BR BKN008 BECMG 1710/1711 31007KT 9999 SCT020 BKN050 QNH2996INS BECMG 1723/1724 VRB06KT 9999 SCT008 BKN010 QNH2997INS TEMPO 1802/1807 5000 BR BKN005 TX18/1714Z TN08/1702Z